Time;durP1;ratioP1;P1;durP2;ratioP2;P2;SDS_P1;SDS_P2;PMS_P1;PMS_P2;Temp;Humidity;BMP_temperature;BMP_pressure;BME280_temperature;BME280_humidity;BME280_pressure;Samples;Min_cycle;Max_cycle;Signal;HPM_P1;HPM_P2
2022/08/17 00:00:17;;;;;;;30.27;27.63;;;19.60;99.90;;;;;;4985035;28;20051;-85
2022/08/17 00:03:19;;;;;;;32.83;29.73;;;19.50;99.90;;;;;;4971524;28;20555;-85
2022/08/17 00:05:52;;;;;;;33.30;30.20;;;19.50;99.90;;;;;;4990682;28;20398;-86
2022/08/17 00:08:24;;;;;;;34.10;30.90;;;19.40;99.90;;;;;;4989837;28;20050;-85
2022/08/17 00:10:51;;;;;;;32.45;29.33;;;19.40;99.90;;;;;;4990408;28;20049;-85
2022/08/17 00:13:27;;;;;;;35.20;31.88;;;19.30;99.90;;;;;;4989937;28;20054;-85
2022/08/17 00:15:59;;;;;;;36.25;33.00;;;19.40;99.90;;;;;;4985778;28;20046;-85
2022/08/17 00:18:32;;;;;;;34.20;31.08;;;19.40;99.90;;;;;;4973426;28;20046;-85
2022/08/17 00:20:59;;;;;;;37.05;33.55;;;19.40;99.90;;;;;;4975541;28;20042;-85
2022/08/17 00:23:25;;;;;;;36.60;33.17;;;19.50;99.90;;;;;;4988262;28;20042;-85
2022/08/17 00:25:52;;;;;;;37.42;33.75;;;19.50;99.90;;;;;;4989868;28;20050;-86
2022/08/17 00:28:18;;;;;;;37.28;33.85;;;19.50;99.90;;;;;;4988985;28;20418;-85
2022/08/17 00:30:46;;;;;;;33.90;30.83;;;19.50;99.90;;;;;;4988680;28;20050;-85
2022/08/17 00:33:16;;;;;;;36.10;32.63;;;19.50;99.90;;;;;;4971762;28;20053;-85
2022/08/17 00:35:46;;;;;;;36.40;33.15;;;19.40;99.90;;;;;;4987164;28;20054;-85
2022/08/17 00:38:12;;;;;;;37.22;33.70;;;19.30;99.90;;;;;;4985174;28;20070;-86
2022/08/17 00:40:40;;;;;;;40.15;36.45;;;19.20;99.90;;;;;;4971153;28;20120;-86
2022/08/17 00:43:16;;;;;;;40.75;36.78;;;19.20;99.90;;;;;;4983554;28;20034;-85
2022/08/17 00:45:42;;;;;;;45.08;40.78;;;19.20;99.90;;;;;;4971133;28;20050;-85
2022/08/17 00:48:08;;;;;;;45.60;41.20;;;19.20;99.90;;;;;;4983021;28;20302;-85
2022/08/17 00:50:34;;;;;;;44.70;40.00;;;19.20;99.90;;;;;;4981716;28;20038;-84
2022/08/17 00:53:00;;;;;;;44.55;39.95;;;19.20;99.90;;;;;;4986197;28;20049;-86
2022/08/17 00:55:27;;;;;;;46.63;42.00;;;19.20;99.90;;;;;;4989472;28;20042;-85
2022/08/17 00:57:56;;;;;;;42.25;38.22;;;19.20;99.90;;;;;;4989476;28;20042;-85
2022/08/17 01:00:28;;;;;;;46.20;41.72;;;19.20;99.90;;;;;;4990578;28;20530;-85
2022/08/17 01:02:58;;;;;;;44.03;39.72;;;19.20;99.90;;;;;;4971787;28;20046;-85
2022/08/17 01:05:28;;;;;;;51.03;46.20;;;19.20;99.90;;;;;;4986348;28;20062;-86
2022/08/17 01:07:54;;;;;;;46.28;41.88;;;19.20;99.90;;;;;;4972287;28;20133;-85
2022/08/17 01:10:25;;;;;;;43.97;39.67;;;19.10;99.90;;;;;;4978275;28;20333;-86
2022/08/17 01:12:51;;;;;;;47.38;42.67;;;19.10;99.90;;;;;;4987946;28;20043;-86
2022/08/17 01:15:17;;;;;;;47.58;42.95;;;19.10;99.90;;;;;;4988175;28;20055;-84
2022/08/17 01:17:44;;;;;;;46.75;42.20;;;19.10;99.90;;;;;;4988883;28;20089;-85
2022/08/17 01:20:13;;;;;;;46.92;42.28;;;19.10;99.90;;;;;;4986818;28;20184;-84
2022/08/17 01:22:39;;;;;;;47.95;43.05;;;19.10;99.90;;;;;;4971644;28;20052;-85
2022/08/17 01:25:06;;;;;;;48.38;43.78;;;19.10;99.90;;;;;;4987420;28;20474;-86
2022/08/17 01:27:34;;;;;;;46.45;42.03;;;19.10;99.90;;;;;;4986128;28;20046;-85
2022/08/17 01:30:07;;;;;;;45.17;40.83;;;19.10;99.90;;;;;;4987990;28;20086;-85
2022/08/17 01:32:32;;;;;;;42.28;38.38;;;19.10;99.90;;;;;;4985007;28;20392;-84
2022/08/17 01:35:01;;;;;;;41.30;37.35;;;19.00;99.90;;;;;;4985194;28;20065;-85
2022/08/17 01:37:34;;;;;;;42.10;38.13;;;18.90;99.90;;;;;;4981296;28;20042;-84
2022/08/17 01:40:06;;;;;;;45.22;38.25;;;18.90;99.90;;;;;;4984137;28;20038;-84
2022/08/17 01:42:45;;;;;;;43.13;39.00;;;18.90;99.90;;;;;;4987909;28;20565;-84
2022/08/17 01:45:16;;;;;;;39.88;36.17;;;18.90;99.90;;;;;;4982484;28;20042;-85
2022/08/17 01:47:42;;;;;;;43.10;38.92;;;18.80;99.90;;;;;;4965409;28;20046;-84
2022/08/17 01:50:14;;;;;;;41.92;37.88;;;18.80;99.90;;;;;;4972261;28;20377;-85
2022/08/17 01:52:42;;;;;;;44.50;40.05;;;18.70;99.90;;;;;;4987136;28;20042;-85
2022/08/17 01:55:08;;;;;;;39.97;36.17;;;18.70;99.90;;;;;;4986472;28;20054;-85
2022/08/17 01:57:34;;;;;;;38.85;35.40;;;18.70;99.90;;;;;;4985740;28;20038;-84
2022/08/17 02:00:00;;;;;;;40.45;36.60;;;18.70;99.90;;;;;;4988536;28;20380;-85
2022/08/17 02:02:27;;;;;;;38.58;34.88;;;18.70;99.90;;;;;;4971235;28;20049;-84
2022/08/17 02:04:52;;;;;;;45.13;40.78;;;18.70;99.90;;;;;;4987515;28;20797;-84
2022/08/17 02:07:18;;;;;;;46.33;41.83;;;18.70;99.90;;;;;;4991294;28;20642;-86
2022/08/17 02:09:43;;;;;;;46.17;41.60;;;18.70;99.90;;;;;;4992265;28;20129;-86
2022/08/17 02:12:09;;;;;;;46.97;42.30;;;18.60;99.90;;;;;;4974474;28;20042;-86
2022/08/17 02:14:35;;;;;;;47.00;42.35;;;18.60;99.90;;;;;;4975973;28;20455;-85
2022/08/17 02:17:00;;;;;;;45.17;40.65;;;18.60;99.90;;;;;;4993048;28;20043;-85
2022/08/17 02:19:26;;;;;;;49.47;44.35;;;18.60;99.90;;;;;;4994334;28;20411;-85
2022/08/17 02:21:54;;;;;;;48.60;43.72;;;18.70;99.90;;;;;;4993605;28;20042;-86
2022/08/17 02:24:23;;;;;;;44.75;40.15;;;18.70;99.90;;;;;;4991963;28;20096;-86
2022/08/17 02:26:49;;;;;;;46.10;41.65;;;18.70;99.90;;;;;;4972851;28;20039;-86
2022/08/17 02:29:15;;;;;;;44.92;40.40;;;18.70;99.90;;;;;;4961756;28;20431;-85
2022/08/17 02:31:41;;;;;;;46.67;41.92;;;18.70;99.90;;;;;;4992831;28;20042;-85
2022/08/17 02:34:07;;;;;;;44.75;40.35;;;18.70;99.90;;;;;;4993028;28;20051;-86
2022/08/17 02:36:33;;;;;;;43.75;39.20;;;18.60;99.90;;;;;;4978670;28;20406;-87
2022/08/17 02:39:04;;;;;;;44.58;40.13;;;18.70;99.90;;;;;;4996205;28;20050;-86
2022/08/17 02:41:30;;;;;;;42.78;38.63;;;18.70;99.90;;;;;;4995586;28;20199;-85
2022/08/17 02:43:55;;;;;;;43.03;38.72;;;18.70;99.90;;;;;;4988392;28;20042;-85
2022/08/17 02:46:21;;;;;;;41.85;37.63;;;18.70;99.90;;;;;;4988473;28;20082;-85
2022/08/17 02:48:47;;;;;;;44.78;40.38;;;18.70;99.90;;;;;;4990782;28;20049;-86
2022/08/17 02:51:13;;;;;;;44.30;39.63;;;18.70;99.90;;;;;;4990203;28;20039;-87
2022/08/17 02:53:39;;;;;;;44.03;39.72;;;18.70;99.90;;;;;;4974360;28;20479;-86
2022/08/17 02:56:05;;;;;;;43.58;39.17;;;18.80;99.90;;;;;;4987157;28;20116;-85
2022/08/17 02:58:31;;;;;;;41.40;37.47;;;18.80;99.90;;;;;;4991270;28;20451;-86
2022/08/17 03:00:56;;;;;;;41.42;37.30;;;18.80;99.90;;;;;;4990181;28;20058;-85
2022/08/17 03:03:22;;;;;;;40.40;36.40;;;18.70;99.90;;;;;;4987791;28;20038;-84
2022/08/17 03:05:52;;;;;;;40.03;35.97;;;18.70;99.90;;;;;;4988387;28;20042;-85
2022/08/17 03:08:19;;;;;;;41.72;37.75;;;18.70;99.90;;;;;;4991535;28;20038;-86
2022/08/17 03:10:45;;;;;;;38.92;35.13;;;18.70;99.90;;;;;;4989607;28;20455;-84
2022/08/17 03:13:13;;;;;;;39.15;35.45;;;18.70;99.90;;;;;;4989257;28;20125;-84
2022/08/17 03:15:40;;;;;;;41.90;37.75;;;18.70;99.90;;;;;;4972870;28;20101;-85
2022/08/17 03:18:05;;;;;;;42.35;38.08;;;18.70;99.90;;;;;;4988254;28;20411;-85
2022/08/17 03:20:33;;;;;;;41.60;37.45;;;18.70;99.90;;;;;;4990575;28;20108;-85
2022/08/17 03:22:59;;;;;;;42.22;38.22;;;18.60;99.90;;;;;;4989149;28;20081;-86
2022/08/17 03:25:28;;;;;;;41.55;37.47;;;18.60;99.90;;;;;;4990280;28;20513;-85
2022/08/17 03:27:54;;;;;;;45.00;40.60;;;18.60;99.90;;;;;;4973241;28;20042;-85
2022/08/17 03:30:21;;;;;;;43.13;38.83;;;18.50;99.90;;;;;;4990471;28;20511;-85
2022/08/17 03:32:49;;;;;;;42.83;38.60;;;18.50;99.90;;;;;;4973480;28;20038;-85
2022/08/17 03:35:23;;;;;;;42.80;38.63;;;18.50;99.90;;;;;;4991258;28;20046;-85
2022/08/17 03:37:49;;;;;;;41.38;37.38;;;18.60;99.90;;;;;;4988713;28;20043;-85
2022/08/17 03:40:16;;;;;;;42.10;37.90;;;18.60;99.90;;;;;;4990090;28;20056;-85
2022/08/17 03:42:42;;;;;;;42.03;37.88;;;18.60;99.90;;;;;;4974296;28;20125;-85
2022/08/17 03:56:40;;;;;;;42.95;38.75;;;18.50;99.90;;;;;;4989420;28;20046;-85
2022/08/17 03:59:00;;;;;;;41.33;37.13;;;18.40;99.90;;;;;;4987841;28;20555;-86
2022/08/17 04:01:26;;;;;;;42.03;37.83;;;18.40;99.90;;;;;;4988814;28;20129;-85
2022/08/17 04:03:51;;;;;;;41.38;37.17;;;18.40;99.90;;;;;;4986970;28;20062;-85
2022/08/17 04:06:17;;;;;;;42.47;38.28;;;18.40;99.90;;;;;;4987847;28;20047;-85
2022/08/17 04:08:43;;;;;;;42.45;38.20;;;18.30;99.90;;;;;;4989267;28;20073;-85
2022/08/17 04:11:08;;;;;;;45.55;41.22;;;18.50;99.90;;;;;;4987487;28;20121;-85
2022/08/17 04:13:34;;;;;;;46.13;41.47;;;18.50;99.90;;;;;;4988453;28;20041;-84
2022/08/17 04:16:03;;;;;;;45.17;40.70;;;18.50;99.90;;;;;;4988231;28;20046;-85
2022/08/17 04:18:31;;;;;;;44.00;39.63;;;18.50;99.90;;;;;;4988938;28;20390;-85
2022/08/17 04:20:59;;;;;;;41.78;37.67;;;18.50;99.90;;;;;;4988971;28;20050;-85
2022/08/17 04:23:31;;;;;;;42.50;38.03;;;18.50;99.90;;;;;;4989096;28;20399;-85
2022/08/17 04:25:57;;;;;;;41.45;37.33;;;18.50;99.90;;;;;;4971601;28;20080;-85
2022/08/17 04:28:22;;;;;;;40.15;36.25;;;18.60;99.90;;;;;;4987834;28;20046;-85
2022/08/17 04:30:49;;;;;;;44.15;39.95;;;18.60;99.90;;;;;;4986873;28;20058;-86
2022/08/17 04:33:22;;;;;;;40.10;36.20;;;18.60;99.90;;;;;;4987620;28;20041;-87
2022/08/17 04:35:51;;;;;;;41.35;37.22;;;18.60;99.90;;;;;;4987103;28;20050;-86
2022/08/17 04:38:24;;;;;;;40.75;36.88;;;18.60;99.90;;;;;;4989071;28;20038;-88
2022/08/17 04:43:36;;;;;;;49.40;44.13;;;18.60;99.90;;;;;;4987867;28;20104;-87
2022/08/17 04:46:05;;;;;;;49.67;44.47;;;18.60;99.90;;;;;;4988421;28;20046;-87
2022/08/17 04:48:34;;;;;;;48.78;43.58;;;18.60;99.90;;;;;;4986099;28;20102;-86
2022/08/17 04:51:00;;;;;;;49.25;44.08;;;18.60;99.90;;;;;;4983521;28;20434;-87
2022/08/17 04:53:28;;;;;;;50.92;45.47;;;18.60;99.90;;;;;;4986348;28;20042;-89
2022/08/17 04:55:56;;;;;;;48.17;43.15;;;18.60;99.90;;;;;;4977114;28;20297;-89
2022/08/17 04:58:21;;;;;;;50.22;45.03;;;18.60;99.90;;;;;;4965643;28;20061;-91
2022/08/17 05:00:47;;;;;;;52.08;46.42;;;18.60;99.90;;;;;;4987088;28;20062;-89
2022/08/17 05:03:13;;;;;;;47.53;42.75;;;18.70;99.90;;;;;;4984637;28;20050;-89
2022/08/17 05:05:48;;;;;;;45.83;41.22;;;18.60;99.90;;;;;;4986693;28;20155;-87
2022/08/17 05:08:15;;;;;;;47.67;42.78;;;18.70;99.90;;;;;;4963894;28;20034;-86
2022/08/17 05:10:42;;;;;;;47.30;42.42;;;18.70;99.90;;;;;;4986650;28;20050;-89
2022/08/17 05:13:14;;;;;;;47.83;42.72;;;18.70;99.90;;;;;;4982123;28;20121;-88
2022/08/17 05:15:41;;;;;;;47.72;42.72;;;18.80;99.90;;;;;;4986402;28;20194;-88
2022/08/17 05:18:07;;;;;;;48.50;43.35;;;18.80;99.90;;;;;;4984357;28;20080;-88
2022/08/17 05:20:34;;;;;;;47.38;42.58;;;18.80;99.90;;;;;;4988203;28;20042;-87
2022/08/17 05:23:05;;;;;;;47.47;42.50;;;18.80;99.90;;;;;;4968216;28;20105;-88
2022/08/17 05:25:34;;;;;;;48.88;43.83;;;18.80;99.90;;;;;;4984947;28;20047;-88
2022/08/17 05:28:00;;;;;;;47.35;42.45;;;18.90;99.90;;;;;;4952137;28;20039;-86
2022/08/17 05:30:26;;;;;;;48.78;43.70;;;18.90;99.90;;;;;;4969090;28;20388;-87
2022/08/17 05:32:59;;;;;;;47.65;42.75;;;18.90;99.90;;;;;;4952149;28;20039;-88
2022/08/17 05:35:27;;;;;;;49.03;43.88;;;18.90;99.90;;;;;;4986412;28;20042;-85
2022/08/17 05:37:53;;;;;;;49.20;44.17;;;19.00;99.90;;;;;;4971383;28;20444;-87
2022/08/17 05:40:20;;;;;;;48.88;43.92;;;19.00;99.90;;;;;;4985861;28;20038;-88
2022/08/17 05:42:47;;;;;;;49.65;44.50;;;19.10;99.90;;;;;;4975675;28;20050;-85
2022/08/17 05:45:19;;;;;;;49.90;44.63;;;19.10;99.90;;;;;;4992217;28;20177;-88
2022/08/17 05:47:45;;;;;;;50.67;45.45;;;19.10;99.90;;;;;;4987864;28;20051;-88
2022/08/17 05:50:30;;;;;;;51.55;45.97;;;19.20;99.90;;;;;;4989064;28;20406;-89
2022/08/17 05:53:17;;;;;;;51.05;45.58;;;19.10;99.90;;;;;;4977274;28;20053;-89
2022/08/17 05:56:26;;;;;;;49.88;44.65;;;19.20;99.90;;;;;;4975664;28;20130;-87
2022/08/17 05:59:30;;;;;;;48.67;43.55;;;19.20;99.90;;;;;;4964975;28;20051;-87
2022/08/17 06:02:34;;;;;;;50.10;44.95;;;19.20;99.90;;;;;;4988096;28;20089;-89
2022/08/17 06:05:34;;;;;;;53.22;47.58;;;19.20;99.90;;;;;;4972465;28;20112;-89
2022/08/17 06:08:12;;;;;;;50.78;45.58;;;19.30;99.90;;;;;;4984239;28;20053;-89
2022/08/17 06:10:54;;;;;;;49.88;44.63;;;19.30;99.90;;;;;;4975545;28;20099;-89
2022/08/17 06:13:41;;;;;;;50.75;45.53;;;19.30;99.90;;;;;;4988809;28;20038;-89
2022/08/17 06:16:11;;;;;;;51.70;45.92;;;19.40;99.90;;;;;;4989437;28;20046;-89
2022/08/17 06:18:52;;;;;;;51.35;46.17;;;19.40;99.90;;;;;;4959189;28;20085;-88
2022/08/17 06:21:19;;;;;;;50.85;45.53;;;19.40;99.90;;;;;;4969954;28;20041;-89
2022/08/17 06:23:53;;;;;;;50.22;45.15;;;19.40;99.90;;;;;;4957839;28;20049;-92
2022/08/17 06:26:30;;;;;;;51.88;46.63;;;19.50;99.90;;;;;;4979672;28;20050;-89
2022/08/17 06:29:07;;;;;;;51.05;45.72;;;19.60;99.90;;;;;;4988135;28;20059;-90
2022/08/17 06:31:37;;;;;;;52.38;46.85;;;19.60;99.90;;;;;;4978116;28;20046;-91
2022/08/17 06:34:09;;;;;;;51.08;45.67;;;19.60;99.90;;;;;;4991300;28;20045;-92
2022/08/17 06:36:47;;;;;;;49.75;44.65;;;19.60;99.90;;;;;;4995457;28;20117;-92
2022/08/17 06:39:54;;;;;;;49.47;44.40;;;19.70;99.90;;;;;;4995757;28;20068;-92
2022/08/17 06:42:39;;;;;;;49.78;44.65;;;19.80;99.90;;;;;;4963472;28;20058;-92
2022/08/17 06:45:18;;;;;;;48.95;43.78;;;19.80;99.90;;;;;;4992388;28;20046;-89
2022/08/17 06:47:52;;;;;;;50.75;45.55;;;19.90;99.90;;;;;;4981833;28;20113;-90
2022/08/17 06:50:38;;;;;;;50.13;44.95;;;19.90;99.90;;;;;;4987980;28;20069;-90
2022/08/17 06:53:12;;;;;;;51.45;46.28;;;19.90;99.90;;;;;;4974299;28;20073;-90
2022/08/17 06:55:47;;;;;;;52.38;46.95;;;20.00;99.90;;;;;;4989047;28;20129;-88
2022/08/17 06:58:16;;;;;;;51.42;46.05;;;20.00;99.90;;;;;;4983520;28;20117;-89
2022/08/17 07:00:46;;;;;;;51.58;46.38;;;20.00;99.90;;;;;;4972489;28;20063;-87
2022/08/17 07:03:31;;;;;;;50.97;45.85;;;20.10;99.90;;;;;;4972681;28;20047;-89
2022/08/17 07:06:18;;;;;;;52.08;46.58;;;20.10;99.90;;;;;;4954670;28;20051;-87
2022/08/17 07:08:59;;;;;;;49.40;44.40;;;20.10;99.90;;;;;;4972725;28;20407;-87
2022/08/17 07:11:55;;;;;;;47.05;42.33;;;20.30;99.90;;;;;;4971273;28;20173;-88
2022/08/17 07:15:04;;;;;;;48.20;43.10;;;20.30;99.90;;;;;;4990942;28;20109;-88
2022/08/17 07:17:32;;;;;;;50.55;45.22;;;20.30;99.90;;;;;;4975180;28;20050;-87
2022/08/17 07:20:08;;;;;;;48.65;43.60;;;20.40;99.90;;;;;;4974108;28;20081;-88
2022/08/17 07:22:57;;;;;;;49.83;44.50;;;20.40;99.90;;;;;;4991070;28;20050;-89
2022/08/17 07:25:23;;;;;;;50.13;44.92;;;20.40;99.90;;;;;;4974147;28;20088;-87
2022/08/17 07:27:55;;;;;;;49.38;44.38;;;20.40;99.90;;;;;;4990107;28;20129;-88
2022/08/17 07:30:24;;;;;;;50.13;44.95;;;20.50;99.90;;;;;;4990097;28;20050;-88
2022/08/17 07:32:58;;;;;;;52.47;47.05;;;20.50;99.90;;;;;;4960969;28;20046;-89
2022/08/17 07:35:40;;;;;;;51.58;46.30;;;20.60;99.90;;;;;;4990834;28;20053;-88
2022/08/17 07:38:22;;;;;;;53.17;47.75;;;20.50;99.90;;;;;;4990059;28;20077;-88
2022/08/17 07:40:56;;;;;;;51.88;46.47;;;20.60;99.90;;;;;;4990121;28;20096;-88
2022/08/17 07:43:32;;;;;;;52.55;47.17;;;20.70;99.90;;;;;;4974822;28;20043;-87
2022/08/17 07:49:20;;;;;;;47.65;42.95;;;20.80;99.90;;;;;;4992510;28;20416;-91
2022/08/17 07:51:45;;;;;;;49.15;44.15;;;20.80;99.90;;;;;;4974734;28;20053;-88
2022/08/17 07:54:14;;;;;;;50.05;44.83;;;20.90;99.90;;;;;;4990806;28;20050;-87
2022/08/17 07:56:51;;;;;;;50.58;45.47;;;20.90;99.90;;;;;;4991182;28;20042;-87
2022/08/17 07:59:30;;;;;;;50.50;45.38;;;21.00;99.90;;;;;;4990401;28;20451;-88
2022/08/17 08:02:05;;;;;;;50.10;44.85;;;21.10;99.90;;;;;;4988936;28;20050;-89
2022/08/17 08:04:41;;;;;;;47.05;42.35;;;21.10;99.90;;;;;;4974292;28;20050;-89
2022/08/17 08:07:22;;;;;;;46.42;41.92;;;21.20;99.90;;;;;;4991644;28;20130;-90
2022/08/17 08:09:59;;;;;;;44.83;40.45;;;21.20;99.90;;;;;;4990418;28;20518;-90
2022/08/17 08:13:04;;;;;;;45.78;41.15;;;21.30;99.90;;;;;;4991401;28;20135;-91
2022/08/17 08:15:38;;;;;;;43.55;39.22;;;21.40;99.90;;;;;;4955079;28;20407;-88
2022/08/17 08:18:19;;;;;;;42.25;38.05;;;21.60;99.90;;;;;;4939128;28;20145;-88
2022/08/17 08:20:58;;;;;;;39.85;36.05;;;21.70;99.90;;;;;;4975419;28;20093;-89
2022/08/17 08:23:35;;;;;;;39.15;35.30;;;21.90;99.90;;;;;;4955852;28;20051;-89
2022/08/17 08:26:32;;;;;;;40.38;36.42;;;22.00;99.90;;;;;;4938449;28;20112;-92
2022/08/17 08:29:29;;;;;;;37.15;33.55;;;22.00;99.90;;;;;;4970491;28;20054;-89
2022/08/17 08:32:07;;;;;;;36.88;33.33;;;22.20;99.90;;;;;;4937179;28;20129;-90
2022/08/17 08:34:47;;;;;;;36.40;32.95;;;22.20;99.90;;;;;;4956003;28;20507;-92
2022/08/17 08:37:55;;;;;;;33.90;30.77;;;22.20;99.90;;;;;;4940626;28;20082;-90
2022/08/17 08:40:39;;;;;;;33.75;30.45;;;22.20;99.90;;;;;;4941029;28;20508;-90
2022/08/17 08:43:31;;;;;;;33.30;29.88;;;22.20;99.90;;;;;;4940202;28;20467;-90
2022/08/17 08:46:15;;;;;;;32.50;29.20;;;22.30;99.90;;;;;;4954270;28;20053;-88
2022/08/17 08:49:01;;;;;;;32.13;29.02;;;22.20;99.90;;;;;;4933166;28;20055;-89
2022/08/17 08:51:59;;;;;;;34.85;31.25;;;22.20;99.90;;;;;;4994023;28;20085;-91
2022/08/17 08:55:03;;;;;;;37.50;33.80;;;22.10;99.90;;;;;;4993701;28;20046;-90
2022/08/17 08:58:01;;;;;;;37.40;33.80;;;22.00;99.90;;;;;;4955619;28;20082;-89
2022/08/17 09:00:34;;;;;;;35.95;32.45;;;21.80;99.90;;;;;;4920344;29;20051;-90
2022/08/17 09:03:20;;;;;;;34.80;31.48;;;21.70;99.90;;;;;;4904466;29;20055;-89
2022/08/17 09:06:05;;;;;;;34.35;30.92;;;21.70;99.90;;;;;;4929289;28;20082;-91
2022/08/17 09:09:28;;;;;;;36.33;32.58;;;21.80;99.90;;;;;;4920223;29;20153;-92
2022/08/17 09:12:04;;;;;;;37.00;33.22;;;21.80;99.90;;;;;;4858034;29;20307;-89
2022/08/17 09:14:53;;;;;;;37.60;33.85;;;21.80;99.90;;;;;;4859560;29;20051;-89
2022/08/17 09:17:28;;;;;;;34.58;31.17;;;21.90;99.90;;;;;;4859915;29;20161;-91
2022/08/17 09:20:03;;;;;;;34.20;30.70;;;22.00;99.90;;;;;;4843223;29;20049;-92
2022/08/17 09:22:41;;;;;;;39.33;35.22;;;22.10;99.90;;;;;;4860106;29;20060;-93
2022/08/17 09:25:20;;;;;;;37.45;33.60;;;22.30;99.90;;;;;;4871913;29;20276;-89
2022/08/17 09:27:57;;;;;;;38.60;34.72;;;22.30;99.90;;;;;;4878068;29;20088;-92
2022/08/17 09:30:35;;;;;;;35.17;31.58;;;22.30;99.90;;;;;;4892548;29;20048;-89
2022/08/17 09:33:06;;;;;;;38.17;34.28;;;22.30;99.90;;;;;;4892542;29;20087;-89
2022/08/17 09:35:48;;;;;;;37.33;33.70;;;22.20;99.90;;;;;;4892937;29;20057;-90
2022/08/17 09:38:48;;;;;;;36.10;32.50;;;22.30;99.90;;;;;;4911894;29;20130;-94
2022/08/17 09:41:35;;;;;;;38.67;34.80;;;22.30;99.90;;;;;;4915015;29;20059;-91
2022/08/17 09:44:22;;;;;;;38.30;34.30;;;22.20;99.90;;;;;;4988861;28;20105;-87
2022/08/17 09:46:51;;;;;;;38.85;35.05;;;22.10;99.90;;;;;;4972893;28;20046;-89
2022/08/17 09:49:45;;;;;;;36.78;33.15;;;22.20;99.90;;;;;;4989394;28;20050;-90
2022/08/17 09:52:26;;;;;;;38.90;35.08;;;22.20;99.90;;;;;;4972338;28;20041;-91
2022/08/17 09:54:54;;;;;;;39.92;36.03;;;22.20;99.90;;;;;;4972399;28;20047;-88
2022/08/17 09:57:27;;;;;;;41.38;37.28;;;22.30;99.90;;;;;;4974548;28;20034;-91
2022/08/17 10:00:14;;;;;;;39.72;35.80;;;22.30;99.90;;;;;;4988858;28;20056;-91
2022/08/17 10:02:59;;;;;;;38.30;34.53;;;22.40;99.90;;;;;;4989943;28;20054;-92
2022/08/17 10:05:55;;;;;;;36.22;32.75;;;22.50;99.90;;;;;;4973840;28;20043;-94
2022/08/17 10:08:44;;;;;;;36.67;33.00;;;22.60;99.90;;;;;;4972577;28;20034;-89
2022/08/17 10:11:21;;;;;;;37.33;33.72;;;22.70;99.90;;;;;;4975280;28;20054;-94
2022/08/17 10:13:57;;;;;;;40.08;36.13;;;22.70;99.90;;;;;;4974257;28;20483;-90
2022/08/17 10:16:46;;;;;;;41.30;37.30;;;22.70;99.90;;;;;;4990657;28;20038;-93
2022/08/17 10:19:24;;;;;;;40.67;36.67;;;22.60;99.90;;;;;;4977390;28;20054;-90
2022/08/17 10:27:50;;;;;;;38.55;34.63;;;22.90;99.90;;;;;;4990046;28;20505;-92
2022/08/17 10:30:19;;;;;;;37.95;34.22;;;23.00;99.90;;;;;;4991898;28;20042;-92
2022/08/17 10:32:55;;;;;;;36.90;33.20;;;23.00;99.90;;;;;;4976043;28;20073;-91
2022/08/17 10:35:40;;;;;;;36.53;32.88;;;23.10;99.90;;;;;;4995676;28;20380;-87
2022/08/17 10:38:15;;;;;;;37.53;33.83;;;23.10;99.90;;;;;;4994363;28;20043;-91
2022/08/17 10:40:59;;;;;;;35.83;32.25;;;23.10;99.90;;;;;;4979143;28;20050;-89
2022/08/17 10:43:57;;;;;;;36.53;32.83;;;23.10;99.90;;;;;;4994999;28;20169;-90
2022/08/17 10:46:45;;;;;;;32.55;29.35;;;23.10;99.90;;;;;;4977594;28;20054;-92
2022/08/17 10:49:16;;;;;;;35.45;31.95;;;23.20;99.90;;;;;;4957576;28;20381;-93
2022/08/17 10:51:46;;;;;;;35.60;32.20;;;23.40;99.90;;;;;;4975590;28;20346;-89
2022/08/17 10:54:24;;;;;;;34.90;31.38;;;23.40;99.90;;;;;;4974491;28;20051;-91
2022/08/17 10:56:53;;;;;;;32.95;29.70;;;23.40;99.90;;;;;;4956322;28;20100;-91
2022/08/17 10:59:33;;;;;;;34.22;30.90;;;23.50;99.90;;;;;;4974696;28;20133;-92
2022/08/17 11:02:18;;;;;;;;;;;23.60;99.90;;;;;;4978672;28;20078;-92
2022/08/17 11:05:14;;;;;;;32.55;29.25;;;23.50;99.90;;;;;;4975112;28;20085;-90
2022/08/17 11:07:48;;;;;;;33.80;30.40;;;23.60;99.90;;;;;;4977634;28;20077;-87
2022/08/17 11:10:16;;;;;;;34.05;30.65;;;23.60;99.90;;;;;;4975476;28;20149;-93
2022/08/17 11:12:53;;;;;;;32.00;28.67;;;23.60;99.90;;;;;;4976225;28;20077;-89
2022/08/17 11:15:24;;;;;;;31.60;28.52;;;23.70;99.90;;;;;;4992290;28;20092;-93
2022/08/17 11:18:08;;;;;;;31.63;28.52;;;23.60;99.90;;;;;;4992438;28;20062;-91
2022/08/17 11:21:03;;;;;;;31.70;28.50;;;23.60;99.90;;;;;;4976874;28;20113;-91
2022/08/17 11:24:00;;;;;;;34.22;30.75;;;23.60;99.90;;;;;;4956532;28;20043;-92
2022/08/17 11:26:35;;;;;;;31.27;28.27;;;23.60;99.90;;;;;;4957876;28;20073;-93
2022/08/17 11:29:23;;;;;;;32.28;28.90;;;23.60;99.90;;;;;;4973574;28;20061;-93
2022/08/17 11:32:06;;;;;;;32.88;29.60;;;23.60;99.90;;;;;;4974297;28;20062;-89
2022/08/17 11:34:33;;;;;;;32.38;29.10;;;23.60;99.90;;;;;;4974894;28;20042;-90
2022/08/17 11:37:16;;;;;;;34.40;30.95;;;23.70;99.90;;;;;;4983383;28;20458;-90
2022/08/17 11:40:08;;;;;;;32.30;29.10;;;23.60;99.90;;;;;;4991585;28;20049;-90
2022/08/17 11:42:51;;;;;;;31.23;28.08;;;23.70;99.90;;;;;;4975215;28;20132;-89
2022/08/17 11:45:38;;;;;;;32.60;29.33;;;23.80;99.90;;;;;;4991336;28;20072;-91
2022/08/17 11:51:33;;;;;;;32.05;28.88;;;24.00;99.90;;;;;;4978166;28;20042;-92
2022/08/17 11:54:05;;;;;;;32.22;28.92;;;24.00;99.90;;;;;;4993379;28;20062;-95
2022/08/17 11:56:36;;;;;;;34.35;30.85;;;24.00;99.90;;;;;;4992108;28;20101;-90
2022/08/17 11:59:01;;;;;;;;;;;24.10;99.90;;;;;;4993072;28;20046;-91
2022/08/17 12:01:48;;;;;;;30.92;27.58;;;24.10;99.90;;;;;;4994547;28;20325;-94
2022/08/17 12:04:31;;;;;;;30.10;27.13;;;24.20;99.90;;;;;;4993847;28;20133;-92
2022/08/17 12:07:05;;;;;;;30.00;27.10;;;24.30;99.90;;;;;;4978777;28;20474;-93
2022/08/17 12:09:33;;;;;;;30.33;27.23;;;24.30;99.90;;;;;;4973818;28;20147;-93
2022/08/17 12:12:03;;;;;;;28.67;25.77;;;24.10;99.90;;;;;;4955858;28;20042;-93
2022/08/17 12:14:33;;;;;;;28.30;25.50;;;24.10;99.90;;;;;;4973993;28;20062;-90
2022/08/17 12:17:12;;;;;;;29.58;26.77;;;24.10;99.90;;;;;;4972199;28;20057;-93
2022/08/17 12:19:41;;;;;;;30.13;27.23;;;24.10;99.90;;;;;;4972479;28;20047;-93
2022/08/17 12:22:21;;;;;;;27.27;24.73;;;24.20;99.90;;;;;;4973292;28;20097;-94
2022/08/17 12:25:12;;;;;;;27.23;24.55;;;24.10;99.90;;;;;;4975305;28;20051;-92
2022/08/17 12:27:45;;;;;;;27.88;25.17;;;24.20;99.90;;;;;;4958211;28;20447;-91
2022/08/17 12:30:14;;;;;;;26.30;23.70;;;24.20;99.90;;;;;;4973656;28;20046;-94
2022/08/17 12:32:40;;;;;;;25.75;23.35;;;24.10;99.90;;;;;;4973068;28;20047;-93
2022/08/17 12:35:28;;;;;;;25.27;22.77;;;24.10;99.90;;;;;;4957317;28;20113;-92
2022/08/17 12:37:58;;;;;;;23.83;21.52;;;24.10;99.90;;;;;;4974373;28;20109;-91
2022/08/17 12:40:27;;;;;;;23.83;21.60;;;24.10;99.90;;;;;;4960262;28;20050;-92
2022/08/17 12:42:59;;;;;;;23.17;20.95;;;24.10;99.90;;;;;;4989622;28;20043;-93
2022/08/17 12:45:38;;;;;;;22.27;20.08;;;24.00;99.90;;;;;;4990975;28;20084;-91
2022/08/17 12:48:12;;;;;;;24.00;21.67;;;24.00;99.90;;;;;;4989460;28;20053;-94
2022/08/17 12:50:42;;;;;;;22.30;20.15;;;23.90;99.90;;;;;;4991428;28;20073;-91
2022/08/17 12:53:20;;;;;;;22.52;20.23;;;23.90;99.90;;;;;;4990930;28;20045;-90
2022/08/17 12:55:47;;;;;;;24.02;21.73;;;24.00;99.90;;;;;;4994762;28;20073;-91
2022/08/17 12:58:46;;;;;;;27.50;24.90;;;24.10;99.90;;;;;;4976329;28;20120;-94
2022/08/17 13:01:16;;;;;;;28.95;26.05;;;24.20;99.90;;;;;;4991670;28;20049;-92
2022/08/17 13:03:48;;;;;;;29.10;26.38;;;24.20;99.90;;;;;;4992802;28;20054;-92
2022/08/17 13:06:31;;;;;;;28.13;25.27;;;24.30;99.90;;;;;;4977642;28;20492;-91
2022/08/17 13:09:17;;;;;;;30.15;27.05;;;24.40;99.90;;;;;;4992063;28;20054;-95
2022/08/17 13:11:52;;;;;;;29.23;26.30;;;24.50;99.90;;;;;;4957358;28;20125;-94
2022/08/17 13:14:18;;;;;;;31.17;27.95;;;24.50;99.90;;;;;;4975244;28;20035;-92
2022/08/17 13:16:59;;;;;;;29.98;26.95;;;24.60;99.90;;;;;;4971584;28;20061;-93
2022/08/17 13:19:28;;;;;;;29.75;26.70;;;24.60;99.90;;;;;;4975060;28;20046;-91
2022/08/17 13:21:58;;;;;;;29.27;26.27;;;24.70;99.90;;;;;;4994064;28;20047;-93
2022/08/17 13:24:28;;;;;;;33.63;30.02;;;24.70;99.90;;;;;;4995785;28;20038;-95
2022/08/17 13:27:06;;;;;;;33.17;29.88;;;24.70;99.90;;;;;;4992221;28;20395;-95
2022/08/17 13:29:45;;;;;;;33.28;29.92;;;24.70;99.90;;;;;;4978812;28;20038;-93
2022/08/17 13:32:14;;;;;;;32.42;29.33;;;24.70;99.90;;;;;;4977369;28;20065;-94